createdAt,value
2023-05-12T00:00:49.922Z,6.80
2023-05-12T00:03:18.217Z,6.93
2023-05-12T00:05:46.827Z,5.45
2023-05-12T00:08:15.611Z,5.03
2023-05-12T00:10:44.289Z,4.82
2023-05-12T00:13:14.004Z,5.70
2023-05-12T00:15:42.595Z,4.93
2023-05-12T00:18:10.808Z,4.82
2023-05-12T00:20:39.871Z,4.63
2023-05-12T00:23:08.421Z,4.13
2023-05-12T00:25:37.035Z,3.53
2023-05-12T00:28:05.826Z,3.80
2023-05-12T00:30:35.478Z,4.43
2023-05-12T00:33:04.083Z,3.70
2023-05-12T00:35:32.327Z,4.63
2023-05-12T00:38:01.028Z,3.80
2023-05-12T00:40:29.571Z,4.43
2023-05-12T00:42:58.075Z,4.22
2023-05-12T00:45:26.707Z,3.63
2023-05-12T00:47:56.542Z,4.57
2023-05-12T00:50:25.542Z,4.47
2023-05-12T00:52:54.474Z,4.50
2023-05-12T00:55:22.998Z,6.10
2023-05-12T00:57:51.587Z,5.05
2023-05-12T01:00:20.658Z,5.07
2023-05-12T01:02:50.120Z,5.10
2023-05-12T01:05:20.054Z,4.82
2023-05-12T01:07:49.479Z,4.95
2023-05-12T01:10:20.333Z,4.32
2023-05-12T01:12:49.352Z,4.45
2023-05-12T01:15:19.510Z,5.35
2023-05-12T01:17:54.942Z,5.07
2023-05-12T01:20:27.939Z,4.85
2023-05-12T01:22:58.133Z,4.50
2023-05-12T01:25:34.081Z,4.53
2023-05-12T01:28:06.632Z,4.30
2023-05-12T01:30:37.795Z,4.22
2023-05-12T01:33:06.196Z,4.72
2023-05-12T01:35:34.833Z,4.43
2023-05-12T01:38:04.381Z,4.75
2023-05-12T01:40:36.383Z,5.15
2023-05-12T01:43:06.214Z,4.80
2023-05-12T01:45:35.314Z,5.63
2023-05-12T01:48:05.832Z,5.32
2023-05-12T01:50:34.370Z,4.93
2023-05-12T01:53:03.767Z,5.55
2023-05-12T01:55:34.479Z,4.85
2023-05-12T01:58:05.107Z,5.40
2023-05-12T02:00:33.941Z,4.88
2023-05-12T02:03:03.802Z,5.05
2023-05-12T02:05:32.442Z,5.00
2023-05-12T02:08:02.198Z,4.95
2023-05-12T02:10:30.759Z,5.07
2023-05-12T02:12:59.273Z,5.10
2023-05-12T02:15:30.582Z,5.43
2023-05-12T02:17:59.529Z,4.30
2023-05-12T02:20:29.646Z,5.72
2023-05-12T02:22:58.030Z,4.93
2023-05-12T02:25:26.219Z,5.10
2023-05-12T02:27:54.865Z,5.65
2023-05-12T02:30:23.673Z,6.00
2023-05-12T02:32:53.957Z,5.70
2023-05-12T02:35:22.381Z,5.28
2023-05-12T02:37:50.937Z,5.35
2023-05-12T02:40:19.439Z,5.10
2023-05-12T02:42:48.223Z,5.38
2023-05-12T02:45:16.834Z,4.78
2023-05-12T02:47:45.363Z,5.65
2023-05-12T02:50:15.034Z,5.10
2023-05-12T02:52:43.530Z,5.55
2023-05-12T02:55:12.090Z,4.80
2023-05-12T02:57:42.229Z,5.03
2023-05-12T03:00:12.384Z,5.78
2023-05-12T03:02:42.238Z,6.57
2023-05-12T03:05:11.097Z,6.10
2023-05-12T03:07:40.920Z,6.97
2023-05-12T03:10:10.860Z,5.55
2023-05-12T03:12:39.457Z,4.95
2023-05-12T03:15:09.393Z,5.40
2023-05-12T03:17:38.024Z,6.50
2023-05-12T03:20:07.898Z,6.07
2023-05-12T03:22:38.393Z,5.93
2023-05-12T03:25:10.319Z,6.07
2023-05-12T03:27:39.129Z,5.55
2023-05-12T03:30:09.192Z,5.53
2023-05-12T03:32:40.068Z,5.53
2023-05-12T03:35:11.334Z,6.18
2023-05-12T03:37:39.609Z,5.40
2023-05-12T03:40:11.870Z,5.78
2023-05-12T03:42:40.419Z,6.05
2023-05-12T03:45:11.602Z,6.03
2023-05-12T03:47:41.177Z,6.63
2023-05-12T03:50:11.034Z,7.20
2023-05-12T03:52:41.232Z,6.75
2023-05-12T03:55:11.364Z,6.22
2023-05-12T03:57:39.560Z,6.57
2023-05-12T04:00:09.259Z,5.68
2023-05-12T04:02:47.830Z,6.75
2023-05-12T04:05:16.434Z,6.32
2023-05-12T04:07:44.965Z,6.53
2023-05-12T04:10:14.678Z,6.65
2023-05-12T04:12:43.543Z,6.68
2023-05-12T04:15:14.705Z,6.95
2023-05-12T04:17:43.683Z,6.85
2023-05-12T04:20:13.907Z,7.00
2023-05-12T04:22:44.186Z,6.80
2023-05-12T04:25:14.300Z,7.22
2023-05-12T04:27:42.915Z,7.68
2023-05-12T04:30:11.876Z,6.90
2023-05-12T04:32:42.438Z,7.57
2023-05-12T04:35:11.370Z,7.40
2023-05-12T04:37:40.111Z,8.00
2023-05-12T04:40:10.289Z,8.57
2023-05-12T04:42:39.946Z,9.27
2023-05-12T04:45:11.841Z,8.93
2023-05-12T04:47:40.175Z,8.48
2023-05-12T04:50:10.615Z,8.95
2023-05-12T04:52:39.435Z,8.75
2023-05-12T04:55:08.789Z,9.02
2023-05-12T04:57:41.194Z,9.82
2023-05-12T05:00:12.928Z,8.70
2023-05-12T05:02:41.488Z,9.70
2023-05-12T05:05:11.783Z,9.82
2023-05-12T05:07:40.328Z,8.43
2023-05-12T05:10:10.132Z,9.57
2023-05-12T05:12:41.321Z,9.88
2023-05-12T05:15:11.616Z,10.73
2023-05-12T05:17:40.141Z,11.00
2023-05-12T05:20:12.655Z,10.73
2023-05-12T05:22:44.072Z,9.82
2023-05-12T05:25:14.109Z,10.25
2023-05-12T05:27:43.702Z,11.35
2023-05-12T05:30:12.454Z,10.60
2023-05-12T05:32:42.041Z,12.25
2023-05-12T05:35:11.523Z,11.20
2023-05-12T05:37:44.467Z,11.98
2023-05-12T05:40:13.365Z,13.45
2023-05-12T05:42:43.500Z,12.57
2023-05-12T05:45:13.439Z,14.05
2023-05-12T05:47:42.278Z,11.32
2023-05-12T05:50:11.981Z,12.20
2023-05-12T05:52:42.459Z,12.50
2023-05-12T05:55:11.537Z,11.07
2023-05-12T05:57:40.364Z,10.60
2023-05-12T06:00:12.691Z,10.52
2023-05-12T06:02:48.540Z,7.47
2023-05-12T06:05:20.869Z,8.57
2023-05-12T06:07:49.864Z,8.07
2023-05-12T06:10:18.619Z,7.22
2023-05-12T06:12:47.083Z,6.50
2023-05-12T06:15:17.630Z,6.93
2023-05-12T06:17:46.709Z,7.40
2023-05-12T06:20:15.697Z,6.72
2023-05-12T06:22:44.355Z,7.28
2023-05-12T06:25:12.620Z,6.97
2023-05-12T06:27:41.197Z,6.95
2023-05-12T06:30:12.554Z,5.80
2023-05-12T06:32:44.030Z,5.60
2023-05-12T06:35:12.569Z,5.43
2023-05-12T06:37:41.047Z,5.30
2023-05-12T06:40:10.427Z,4.25
2023-05-12T06:42:38.951Z,4.40
2023-05-12T06:45:12.936Z,4.18
2023-05-12T06:47:43.224Z,4.45
2023-05-12T06:50:12.218Z,3.78
2023-05-12T06:52:40.461Z,3.67
2023-05-12T06:55:09.424Z,3.03
2023-05-12T06:57:38.014Z,3.08
2023-05-12T07:00:08.092Z,3.33
2023-05-12T07:02:36.658Z,2.75
2023-05-12T07:05:07.148Z,2.97
2023-05-12T07:07:35.965Z,2.78
2023-05-12T07:10:04.550Z,2.47
2023-05-12T07:12:33.187Z,2.42
2023-05-12T07:15:01.813Z,3.13
2023-05-12T07:17:30.345Z,2.83
2023-05-12T07:19:58.892Z,3.08
2023-05-12T07:22:29.584Z,2.63
2023-05-12T07:24:58.153Z,3.72
2023-05-12T07:27:26.490Z,3.22
2023-05-12T07:29:55.220Z,3.63
2023-05-12T07:32:23.772Z,3.65
2023-05-12T07:34:51.984Z,4.25
2023-05-12T07:37:20.196Z,3.90
2023-05-12T07:39:49.847Z,4.70
2023-05-12T07:42:18.434Z,4.63
2023-05-12T07:44:46.699Z,5.20
2023-05-12T07:47:15.334Z,4.60
2023-05-12T07:49:43.976Z,3.92
2023-05-12T07:52:12.484Z,5.70
2023-05-12T07:54:41.139Z,4.85
2023-05-12T07:57:11.036Z,5.07
2023-05-12T07:59:40.189Z,4.88
2023-05-12T08:02:08.525Z,5.15
2023-05-12T08:04:37.265Z,5.93
2023-05-12T08:07:05.846Z,5.57
2023-05-12T08:09:34.340Z,6.15
2023-05-12T08:12:02.935Z,5.18
2023-05-12T08:14:32.527Z,5.93
2023-05-12T08:17:01.209Z,6.10
2023-05-12T08:19:29.756Z,5.85
2023-05-12T08:21:58.286Z,5.43
2023-05-12T08:24:27.243Z,5.75
2023-05-12T08:26:55.721Z,5.63
2023-05-12T08:29:24.429Z,5.88
2023-05-12T08:31:54.137Z,5.78
2023-05-12T08:34:22.697Z,5.43
2023-05-12T08:36:52.795Z,5.68
2023-05-12T08:39:21.841Z,6.32
2023-05-12T08:41:56.980Z,6.30
2023-05-12T08:44:27.212Z,5.93
2023-05-12T08:46:59.502Z,6.43
2023-05-12T08:49:30.860Z,7.63
2023-05-12T08:52:03.737Z,6.35
2023-05-12T08:54:36.057Z,7.32
2023-05-12T08:57:10.283Z,7.30
2023-05-12T08:59:40.627Z,7.22
2023-05-12T09:02:12.629Z,6.22
2023-05-12T09:04:41.251Z,6.22
2023-05-12T09:07:09.661Z,6.65
2023-05-12T09:09:39.416Z,6.53
2023-05-12T09:12:14.024Z,6.97
2023-05-12T09:14:45.800Z,6.20
2023-05-12T09:17:15.783Z,6.40
2023-05-12T09:19:44.283Z,6.32
2023-05-12T09:22:14.819Z,7.75
2023-05-12T09:24:44.148Z,7.32
2023-05-12T09:27:12.687Z,8.07
2023-05-12T09:29:59.207Z,6.15
2023-05-12T09:32:36.911Z,6.82
2023-05-12T09:35:08.091Z,6.78
2023-05-12T09:37:36.779Z,6.70
2023-05-12T09:40:09.114Z,6.78
2023-05-12T09:42:37.759Z,6.93
2023-05-12T09:45:09.212Z,6.55
2023-05-12T09:47:40.607Z,6.82
2023-05-12T09:50:10.063Z,6.30
2023-05-12T09:52:41.107Z,6.80
2023-05-12T09:55:12.064Z,7.13
2023-05-12T09:57:42.945Z,7.45
2023-05-12T10:00:31.259Z,7.28
2023-05-12T10:03:08.420Z,6.78
2023-05-12T10:05:39.703Z,5.88
2023-05-12T10:08:08.496Z,4.25
2023-05-12T10:10:38.009Z,4.13
2023-05-12T10:13:06.852Z,3.67
2023-05-12T10:15:36.736Z,3.05
2023-05-12T10:18:06.842Z,2.63
2023-05-12T10:20:36.070Z,2.83
2023-05-12T10:23:07.321Z,2.40
2023-05-12T10:25:35.987Z,2.50
2023-05-12T10:28:05.011Z,2.60
2023-05-12T10:30:34.165Z,2.72
2023-05-12T10:33:02.901Z,3.05
2023-05-12T10:35:37.351Z,2.70
2023-05-12T10:38:08.905Z,3.30
2023-05-12T10:40:37.891Z,3.65
2023-05-12T10:43:06.664Z,2.70
2023-05-12T10:45:38.660Z,3.10
2023-05-12T10:48:09.106Z,2.63
2023-05-12T10:50:39.032Z,2.38
2023-05-12T10:53:08.673Z,3.00
2023-05-12T10:55:46.459Z,2.50
2023-05-12T10:58:17.754Z,2.13
2023-05-12T11:00:52.159Z,2.40
2023-05-12T11:06:05.057Z,2.65
2023-05-12T11:08:35.672Z,2.47
2023-05-12T11:11:04.593Z,3.00
2023-05-12T11:13:33.235Z,2.90
2023-05-12T11:16:01.746Z,2.63
2023-05-12T11:18:30.269Z,2.65
2023-05-12T11:20:58.877Z,2.65
2023-05-12T11:23:29.796Z,2.40
2023-05-12T11:25:58.134Z,2.50
2023-05-12T11:28:26.397Z,2.97
2023-05-12T11:30:55.832Z,2.92
2023-05-12T11:33:24.621Z,2.17
2023-05-12T11:35:53.529Z,2.38
2023-05-12T11:38:24.389Z,2.58
2023-05-12T11:40:54.337Z,2.63
2023-05-12T11:43:23.324Z,2.55
2023-05-12T11:45:52.081Z,2.17
2023-05-12T11:48:21.572Z,2.50
2023-05-12T11:50:51.436Z,3.60
2023-05-12T11:53:20.366Z,2.35
2023-05-12T11:55:55.796Z,2.90
2023-05-12T11:58:26.790Z,2.67
2023-05-12T12:00:57.067Z,2.38
2023-05-12T12:03:26.247Z,2.65
2023-05-12T12:06:02.998Z,2.35
2023-05-12T12:08:31.768Z,2.38
2023-05-12T12:11:03.633Z,2.47
2023-05-12T12:13:32.127Z,2.45
2023-05-12T12:16:00.681Z,2.38
2023-05-12T12:18:29.268Z,2.67
2023-05-12T12:20:57.827Z,2.20
2023-05-12T12:23:26.399Z,2.45
2023-05-12T12:25:54.912Z,2.22
2023-05-12T12:28:24.537Z,2.10
2023-05-12T12:30:53.075Z,2.40
2023-05-12T12:33:21.671Z,2.20
2023-05-12T12:35:49.953Z,2.17
2023-05-12T12:38:18.261Z,2.08
2023-05-12T12:40:46.495Z,2.00
2023-05-12T12:43:15.093Z,1.88
2023-05-12T12:45:46.095Z,2.28
2023-05-12T12:48:14.320Z,2.50
2023-05-12T12:50:42.986Z,1.88
2023-05-12T12:53:11.530Z,2.53
2023-05-12T12:55:40.068Z,2.05
2023-05-12T12:58:09.137Z,2.25
2023-05-12T13:00:38.037Z,2.40
2023-05-12T13:03:08.812Z,2.22
2023-05-12T13:05:37.084Z,2.10
2023-05-12T13:08:05.624Z,2.05
2023-05-12T13:10:34.041Z,2.13
2023-05-12T13:13:02.672Z,2.72
2023-05-12T13:15:32.245Z,2.60
2023-05-12T13:18:00.760Z,2.30
2023-05-12T13:20:30.457Z,2.70
2023-05-12T13:22:59.189Z,1.90
2023-05-12T13:25:27.737Z,2.38
2023-05-12T13:27:56.235Z,2.42
2023-05-12T13:30:25.117Z,2.33
2023-05-12T13:32:53.772Z,2.13
2023-05-12T13:35:22.807Z,2.28
2023-05-12T13:37:52.562Z,1.90
2023-05-12T13:40:21.027Z,1.58
2023-05-12T13:42:49.250Z,1.90
2023-05-12T13:45:19.555Z,1.55
2023-05-12T13:47:48.583Z,2.15
2023-05-12T13:50:17.168Z,1.50
2023-05-12T13:52:47.415Z,1.80
2023-05-12T13:55:21.261Z,1.60
2023-05-12T13:57:50.352Z,1.60
2023-05-12T14:00:19.586Z,1.30
2023-05-12T14:02:49.273Z,1.23
2023-05-12T14:05:18.303Z,1.33
2023-05-12T14:07:47.076Z,0.65
2023-05-12T14:10:17.196Z,1.10
2023-05-12T14:12:45.926Z,0.90
2023-05-12T14:15:32.387Z,0.60
2023-05-12T14:18:03.059Z,0.98
2023-05-12T14:20:31.793Z,0.70
2023-05-12T14:23:00.403Z,0.80
2023-05-12T14:25:30.780Z,0.80
2023-05-12T14:27:59.387Z,0.70
2023-05-12T14:30:27.642Z,0.70
2023-05-12T14:32:55.960Z,0.85
2023-05-12T14:35:27.389Z,0.80
2023-05-12T14:37:56.716Z,1.00
2023-05-12T14:40:25.408Z,0.70
2023-05-12T14:42:55.186Z,0.98
2023-05-12T14:45:25.700Z,0.88
2023-05-12T14:47:54.526Z,1.00
2023-05-12T14:50:23.308Z,1.13
2023-05-12T14:52:52.008Z,0.80
2023-05-12T14:55:20.650Z,0.63
2023-05-12T14:57:49.554Z,0.90
2023-05-12T15:00:21.297Z,1.17
2023-05-12T15:02:49.691Z,0.85
2023-05-12T15:05:18.295Z,0.65
2023-05-12T15:07:47.026Z,1.00
2023-05-12T15:10:39.178Z,1.15
2023-05-12T15:13:07.784Z,1.52
2023-05-12T15:15:39.120Z,1.13
2023-05-12T15:18:07.937Z,1.20
2023-05-12T15:20:36.757Z,1.17
2023-05-12T15:23:05.225Z,0.73
2023-05-12T15:25:33.782Z,0.70
2023-05-12T15:28:02.573Z,1.02
2023-05-12T15:30:30.847Z,0.90
2023-05-12T15:33:04.100Z,0.80
2023-05-12T15:35:33.476Z,0.73
2023-05-12T15:38:01.679Z,1.10
2023-05-12T15:40:31.005Z,1.05
2023-05-12T15:42:59.716Z,0.80
2023-05-12T15:45:27.966Z,0.68
2023-05-12T15:47:56.759Z,0.80
2023-05-12T15:50:26.378Z,0.85
2023-05-12T15:52:54.935Z,1.17
2023-05-12T15:55:23.635Z,1.20
2023-05-12T15:57:53.608Z,1.10
2023-05-12T16:00:22.650Z,0.60
2023-05-12T16:02:51.369Z,0.90
2023-05-12T16:05:20.133Z,0.60
2023-05-12T16:07:49.924Z,0.52
2023-05-12T16:10:18.638Z,0.65
2023-05-12T16:12:47.964Z,0.60
2023-05-12T16:15:16.583Z,0.45
2023-05-12T16:17:45.163Z,3.10
2023-05-12T16:20:14.909Z,1.10
2023-05-12T16:22:43.459Z,0.45
2023-05-12T16:25:13.030Z,0.60
2023-05-12T16:27:41.517Z,0.45
2023-05-12T16:30:13.205Z,0.63
2023-05-12T16:32:41.754Z,0.40
2023-05-12T16:35:10.935Z,0.40
2023-05-12T16:37:39.210Z,0.50
2023-05-12T16:40:10.054Z,0.50
2023-05-12T16:42:39.652Z,0.68
2023-05-12T16:45:10.818Z,0.47
2023-05-12T16:47:39.067Z,0.45
2023-05-12T16:50:09.477Z,0.70
2023-05-12T16:52:38.120Z,0.40
2023-05-12T16:55:07.739Z,0.68
2023-05-12T16:57:36.505Z,0.60
2023-05-12T17:00:09.538Z,0.43
2023-05-12T17:02:38.853Z,0.35
2023-05-12T17:05:08.278Z,0.50
2023-05-12T17:07:36.830Z,0.40
2023-05-12T17:10:06.697Z,0.68
2023-05-12T17:12:34.952Z,0.90
2023-05-12T17:15:07.972Z,0.90
2023-05-12T17:17:37.341Z,0.45
2023-05-12T17:20:06.987Z,0.60
2023-05-12T17:22:41.214Z,0.60
2023-05-12T17:25:10.290Z,0.50
2023-05-12T17:27:38.786Z,0.38
2023-05-12T17:30:10.428Z,0.47
2023-05-12T17:32:39.066Z,0.40
2023-05-12T17:35:09.008Z,0.50
2023-05-12T17:37:38.265Z,0.40
2023-05-12T17:40:08.710Z,0.60
2023-05-12T17:42:36.979Z,0.30
2023-05-12T17:45:06.294Z,0.90
2023-05-12T17:47:35.918Z,0.50
2023-05-12T17:50:04.897Z,0.63
2023-05-12T17:52:33.704Z,0.60
2023-05-12T17:55:02.199Z,0.68
2023-05-12T17:57:31.307Z,0.60
2023-05-12T17:59:59.858Z,0.55
2023-05-12T18:02:28.965Z,0.77
2023-05-12T18:04:58.614Z,0.68
2023-05-12T18:07:27.783Z,1.88
2023-05-12T18:09:56.038Z,1.67
2023-05-12T18:12:24.555Z,1.40
2023-05-12T18:14:53.117Z,0.77
2023-05-12T18:17:22.520Z,2.08
2023-05-12T18:19:51.105Z,0.80
2023-05-12T18:22:20.726Z,1.00
2023-05-12T18:24:50.648Z,1.60
2023-05-12T18:27:19.167Z,4.05
2023-05-12T18:29:47.695Z,2.08
2023-05-12T18:32:15.910Z,0.80
2023-05-12T18:34:46.352Z,0.70
2023-05-12T18:37:15.548Z,0.90
2023-05-12T18:39:45.503Z,0.82
2023-05-12T18:42:14.054Z,0.70
2023-05-12T18:44:42.694Z,0.82
2023-05-12T18:47:11.265Z,0.60
2023-05-12T18:49:39.810Z,0.65
2023-05-12T18:52:08.704Z,0.82
2023-05-12T18:54:39.652Z,1.00
2023-05-12T18:57:09.418Z,0.60
2023-05-12T18:59:38.288Z,0.98
2023-05-12T19:02:07.007Z,0.75
2023-05-12T19:04:35.683Z,0.60
2023-05-12T19:07:04.238Z,0.70
2023-05-12T19:09:32.761Z,1.13
2023-05-12T19:12:01.334Z,1.00
2023-05-12T19:14:31.025Z,0.80
2023-05-12T19:16:59.533Z,0.88
2023-05-12T19:19:28.168Z,1.15
2023-05-12T19:21:56.736Z,0.80
2023-05-12T19:24:26.993Z,0.60
2023-05-12T19:26:55.634Z,0.50
2023-05-12T19:29:24.224Z,0.55
2023-05-12T19:31:54.074Z,0.50
2023-05-12T19:34:23.824Z,0.90
2023-05-12T19:36:53.366Z,0.90
2023-05-12T19:39:21.846Z,0.60
2023-05-12T19:41:51.601Z,0.50
2023-05-12T19:44:20.143Z,0.80
2023-05-12T19:46:48.670Z,0.75
2023-05-12T19:49:18.236Z,1.08
2023-05-12T19:51:48.589Z,1.50
2023-05-12T19:54:17.102Z,1.23
2023-05-12T19:56:45.783Z,0.82
2023-05-12T19:59:14.314Z,0.90
2023-05-12T20:01:42.898Z,0.60
2023-05-12T20:04:11.543Z,0.80
2023-05-12T20:06:42.191Z,0.73
2023-05-12T20:09:11.063Z,0.70
2023-05-12T20:11:39.683Z,0.70
2023-05-12T20:14:08.178Z,0.77
2023-05-12T20:16:38.189Z,0.82
2023-05-12T20:19:06.951Z,0.82
2023-05-12T20:21:35.575Z,0.90
2023-05-12T20:24:06.043Z,0.90
2023-05-12T20:26:34.759Z,0.88
2023-05-12T20:29:03.299Z,0.55
2023-05-12T20:31:32.018Z,0.93
2023-05-12T20:34:00.614Z,0.73
2023-05-12T20:36:28.913Z,0.70
2023-05-12T20:38:58.059Z,0.90
2023-05-12T20:41:27.930Z,0.73
2023-05-12T20:43:56.500Z,1.08
2023-05-12T20:46:26.269Z,0.85
2023-05-12T20:48:54.849Z,1.10
2023-05-12T20:51:23.398Z,0.82
2023-05-12T20:53:51.932Z,1.23
2023-05-12T20:56:22.620Z,0.90
2023-05-12T20:58:52.169Z,1.02
2023-05-12T21:01:20.809Z,1.05
2023-05-12T21:03:49.486Z,0.98
2023-05-12T21:06:18.254Z,1.13
2023-05-12T21:08:47.182Z,1.08
2023-05-12T21:11:16.756Z,1.38
2023-05-12T21:13:46.839Z,0.88
2023-05-12T21:16:16.665Z,2.33
2023-05-12T21:18:45.337Z,1.30
2023-05-12T21:21:13.630Z,1.25
2023-05-12T21:23:42.163Z,1.08
2023-05-12T21:26:11.326Z,1.00
2023-05-12T21:28:39.517Z,1.23
2023-05-12T21:31:08.212Z,1.02
2023-05-12T21:33:37.774Z,1.20
2023-05-12T21:36:07.215Z,1.10
2023-05-12T21:38:35.497Z,1.00
2023-05-12T21:41:04.057Z,1.40
2023-05-12T21:43:32.539Z,1.67
2023-05-12T21:46:04.312Z,1.40
2023-05-12T21:48:33.239Z,1.23
2023-05-12T21:51:04.054Z,1.48
2023-05-12T21:53:32.790Z,1.42
2023-05-12T21:56:01.381Z,2.08
2023-05-12T21:58:30.741Z,2.60
2023-05-12T22:00:59.837Z,2.05
2023-05-12T22:03:28.452Z,2.13
2023-05-12T22:05:57.789Z,1.58
2023-05-12T22:08:27.437Z,2.30
2023-05-12T22:10:55.944Z,2.05
2023-05-12T22:13:24.488Z,19.23
2023-05-12T22:15:53.434Z,6.90
2023-05-12T22:18:21.730Z,1.75
2023-05-12T22:20:50.339Z,1.35
2023-05-12T22:23:18.870Z,1.65
2023-05-12T22:25:48.435Z,1.42
2023-05-12T22:28:16.938Z,1.70
2023-05-12T22:30:45.616Z,1.67
2023-05-12T22:33:14.315Z,1.88
2023-05-12T22:35:42.667Z,1.70
2023-05-12T22:38:10.907Z,2.13
2023-05-12T22:40:39.432Z,2.00
2023-05-12T22:43:09.531Z,1.73
2023-05-12T22:45:37.826Z,2.28
2023-05-12T22:48:06.141Z,1.98
2023-05-12T22:50:34.701Z,1.80
2023-05-12T22:53:03.307Z,2.05
2023-05-12T22:55:31.924Z,1.98
2023-05-12T22:58:01.064Z,2.35
2023-05-12T23:00:30.712Z,2.10
2023-05-12T23:02:59.952Z,2.70
2023-05-12T23:05:28.603Z,2.58
2023-05-12T23:07:57.151Z,2.45
2023-05-12T23:10:25.733Z,2.85
2023-05-12T23:12:54.231Z,2.78
2023-05-12T23:15:22.911Z,2.50
2023-05-12T23:17:52.786Z,2.65
2023-05-12T23:20:21.618Z,2.63
2023-05-12T23:22:50.385Z,2.38
2023-05-12T23:25:18.736Z,2.40
2023-05-12T23:27:47.262Z,2.58
2023-05-12T23:30:15.896Z,2.88
2023-05-12T23:32:44.233Z,2.50
2023-05-12T23:35:13.846Z,2.65
2023-05-12T23:37:42.419Z,2.72
2023-05-12T23:40:11.911Z,3.08
2023-05-12T23:42:40.403Z,3.03
2023-05-12T23:45:10.720Z,3.08
2023-05-12T23:47:39.240Z,2.85
2023-05-12T23:50:09.315Z,3.17
2023-05-12T23:52:39.103Z,3.70
2023-05-12T23:55:08.875Z,2.90
2023-05-12T23:57:37.393Z,2.92
